createdAt,value
2018-02-13T00:00:37.169Z,34.30
2018-02-13T00:03:05.586Z,34.53
2018-02-13T00:05:34.041Z,29.70
2018-02-13T00:10:53.693Z,31.57
2018-02-13T00:13:22.117Z,29.33
2018-02-13T00:15:50.541Z,37.67
2018-02-13T00:18:18.986Z,30.70
2018-02-13T00:20:47.386Z,31.90
2018-02-13T00:23:15.801Z,33.70
2018-02-13T00:25:44.273Z,28.50
2018-02-13T00:28:12.695Z,31.03
2018-02-13T00:30:41.107Z,32.27
2018-02-13T00:33:09.554Z,30.37
2018-02-13T00:35:37.957Z,34.80
2018-02-13T00:38:06.387Z,34.03
2018-02-13T00:40:34.892Z,35.07
2018-02-13T00:43:03.316Z,44.93
2018-02-13T00:45:31.726Z,38.00
2018-02-13T00:48:00.185Z,29.07
2018-02-13T00:50:28.599Z,33.80
2018-02-13T00:52:57.002Z,33.47
2018-02-13T00:55:25.451Z,35.03
2018-02-13T00:57:53.856Z,33.93
2018-02-13T01:00:22.302Z,35.00
2018-02-13T01:02:50.762Z,34.33
2018-02-13T01:05:19.167Z,44.60
2018-02-13T01:07:47.601Z,41.47
2018-02-13T01:10:16.046Z,38.50
2018-02-13T01:12:44.457Z,37.93
2018-02-13T01:15:12.890Z,36.23
2018-02-13T01:17:41.358Z,38.07
2018-02-13T01:20:09.761Z,34.07
2018-02-13T01:22:38.188Z,37.63
2018-02-13T01:25:06.652Z,35.63
2018-02-13T01:27:35.076Z,36.10
2018-02-13T01:30:03.514Z,41.00
2018-02-13T01:32:31.958Z,36.07
2018-02-13T01:35:00.394Z,32.43
2018-02-13T01:37:28.799Z,40.20
2018-02-13T01:39:57.246Z,33.03
2018-02-13T01:42:25.645Z,36.70
2018-02-13T01:44:54.074Z,31.73
2018-02-13T01:47:22.529Z,39.27
2018-02-13T01:49:50.946Z,36.63
2018-02-13T01:52:19.346Z,39.33
2018-02-13T01:54:47.799Z,34.70
2018-02-13T01:57:16.210Z,35.70
2018-02-13T01:59:44.631Z,34.77
2018-02-13T02:02:13.098Z,42.17
2018-02-13T02:04:41.489Z,36.80
2018-02-13T02:07:09.885Z,36.70
2018-02-13T02:09:38.351Z,35.63
2018-02-13T02:12:06.746Z,35.40
2018-02-13T02:14:35.138Z,37.13
2018-02-13T02:17:03.574Z,34.27
2018-02-13T02:19:31.979Z,38.00
2018-02-13T02:22:00.399Z,38.30
2018-02-13T02:24:28.841Z,36.27
2018-02-13T02:26:57.254Z,30.93
2018-02-13T02:29:25.668Z,32.60
2018-02-13T02:31:54.124Z,35.10
2018-02-13T02:34:22.550Z,35.73
2018-02-13T02:36:50.954Z,38.83
2018-02-13T02:39:19.401Z,33.33
2018-02-13T02:41:47.822Z,32.27
2018-02-13T02:44:16.241Z,38.03
2018-02-13T02:46:44.715Z,37.00
2018-02-13T02:49:13.131Z,36.87
2018-02-13T02:51:41.525Z,31.37
2018-02-13T02:54:09.979Z,37.23
2018-02-13T02:56:38.380Z,37.80
2018-02-13T02:59:06.793Z,36.33
2018-02-13T03:01:35.256Z,39.57
2018-02-13T03:04:03.650Z,41.67
2018-02-13T03:06:32.075Z,36.37
2018-02-13T03:09:00.684Z,40.57
2018-02-13T03:11:29.099Z,38.63
2018-02-13T03:13:57.505Z,35.80
2018-02-13T03:16:25.959Z,35.67
2018-02-13T03:18:54.372Z,35.80
2018-02-13T03:21:22.773Z,35.27
2018-02-13T03:23:51.206Z,34.20
2018-02-13T03:26:19.593Z,35.70
2018-02-13T03:28:48.003Z,37.77
2018-02-13T03:31:16.448Z,32.53
2018-02-13T03:33:44.841Z,36.00
2018-02-13T03:36:13.256Z,34.00
2018-02-13T03:38:41.716Z,30.97
2018-02-13T03:41:10.124Z,42.63
2018-02-13T03:43:38.529Z,33.63
2018-02-13T03:46:06.969Z,35.60
2018-02-13T03:48:35.366Z,37.00
2018-02-13T03:51:03.772Z,36.63
2018-02-13T03:53:32.220Z,33.57
2018-02-13T03:56:00.627Z,34.87
2018-02-13T03:58:29.041Z,33.20
2018-02-13T04:00:57.478Z,34.90
2018-02-13T04:03:25.892Z,34.30
2018-02-13T04:05:54.284Z,33.20
2018-02-13T04:08:22.717Z,33.47
2018-02-13T04:10:51.110Z,32.50
2018-02-13T04:13:19.563Z,29.77
2018-02-13T04:15:47.996Z,33.30
2018-02-13T04:18:16.391Z,33.70
2018-02-13T04:20:44.796Z,33.70
2018-02-13T04:23:13.253Z,37.80
2018-02-13T04:25:41.644Z,34.23
2018-02-13T04:28:10.052Z,33.07
2018-02-13T04:30:38.525Z,35.17
2018-02-13T04:33:06.927Z,35.50
2018-02-13T04:35:35.320Z,35.43
2018-02-13T04:38:03.754Z,31.30
2018-02-13T04:40:32.158Z,29.03
2018-02-13T04:43:00.567Z,33.27
2018-02-13T04:45:29.018Z,37.57
2018-02-13T04:47:57.425Z,31.67
2018-02-13T04:50:25.822Z,31.27
2018-02-13T04:52:54.259Z,30.77
2018-02-13T04:55:22.679Z,32.30
2018-02-13T04:57:51.073Z,30.13
2018-02-13T05:00:19.517Z,29.43
2018-02-13T05:02:47.927Z,34.13
2018-02-13T05:05:16.320Z,28.33
2018-02-13T05:07:44.767Z,32.17
2018-02-13T05:10:13.157Z,28.33
2018-02-13T05:12:41.577Z,31.00
2018-02-13T05:15:10.059Z,29.30
2018-02-13T05:17:38.471Z,32.30
2018-02-13T05:20:06.865Z,28.23
2018-02-13T05:22:35.333Z,37.20
2018-02-13T05:25:03.744Z,29.83
2018-02-13T05:27:32.152Z,29.80
2018-02-13T05:30:00.629Z,30.43
2018-02-13T05:32:29.017Z,33.53
2018-02-13T05:34:57.416Z,31.50
2018-02-13T05:37:25.879Z,29.43
2018-02-13T05:39:54.289Z,27.80
2018-02-13T05:42:22.692Z,34.90
2018-02-13T05:44:51.313Z,29.57
2018-02-13T05:47:19.725Z,32.37
2018-02-13T05:49:48.136Z,32.40
2018-02-13T05:52:16.573Z,30.43
2018-02-13T05:54:44.984Z,28.07
2018-02-13T05:57:13.397Z,33.07
2018-02-13T05:59:41.843Z,32.70
2018-02-13T06:02:10.255Z,31.90
2018-02-13T06:04:38.661Z,30.40
2018-02-13T06:07:07.097Z,34.93
2018-02-13T06:09:35.508Z,32.77
2018-02-13T06:12:03.893Z,30.57
2018-02-13T06:14:32.340Z,31.40
2018-02-13T06:17:00.760Z,29.80
2018-02-13T06:19:29.162Z,34.03
2018-02-13T06:21:57.629Z,33.60
2018-02-13T06:24:26.050Z,31.77
2018-02-13T06:26:54.445Z,31.03
2018-02-13T06:29:22.904Z,23.73
2018-02-13T06:31:51.310Z,31.53
2018-02-13T06:34:19.723Z,36.50
2018-02-13T06:36:48.183Z,32.27
2018-02-13T06:39:16.572Z,25.87
2018-02-13T06:41:44.958Z,32.33
2018-02-13T06:44:13.413Z,28.23
2018-02-13T06:46:41.832Z,26.23
2018-02-13T06:49:10.247Z,26.53
2018-02-13T06:51:38.709Z,28.60
2018-02-13T06:54:07.136Z,29.00
2018-02-13T06:56:35.536Z,28.63
2018-02-13T06:59:03.987Z,25.67
2018-02-13T07:01:32.373Z,28.83
2018-02-13T07:04:00.773Z,31.10
2018-02-13T07:06:29.230Z,29.07
2018-02-13T07:08:57.645Z,29.43
2018-02-13T07:11:26.041Z,26.10
2018-02-13T07:13:54.507Z,27.77
2018-02-13T07:16:22.915Z,28.43
2018-02-13T07:18:51.336Z,31.33
2018-02-13T07:21:19.785Z,28.57
2018-02-13T07:23:48.198Z,28.33
2018-02-13T07:26:16.620Z,25.60
2018-02-13T07:28:45.064Z,26.37
2018-02-13T07:31:13.461Z,23.07
2018-02-13T07:33:41.868Z,24.37
2018-02-13T07:36:10.320Z,28.50
2018-02-13T07:38:38.709Z,27.07
2018-02-13T07:41:07.115Z,24.73
2018-02-13T07:43:35.565Z,26.67
2018-02-13T07:46:03.966Z,23.03
2018-02-13T07:48:32.376Z,24.53
2018-02-13T07:51:00.824Z,25.17
2018-02-13T07:53:29.231Z,25.90
2018-02-13T07:55:57.629Z,23.97
2018-02-13T07:58:26.106Z,24.80
2018-02-13T08:00:54.516Z,23.17
2018-02-13T08:03:22.936Z,24.27
2018-02-13T08:05:51.381Z,23.37
2018-02-13T08:08:19.778Z,20.80
2018-02-13T08:10:48.181Z,22.03
2018-02-13T08:13:16.640Z,27.73
2018-02-13T08:15:45.037Z,22.60
2018-02-13T08:18:13.428Z,22.27
2018-02-13T08:20:41.892Z,25.77
2018-02-13T08:23:10.309Z,19.00
2018-02-13T08:25:38.702Z,22.50
2018-02-13T08:28:07.245Z,20.43
2018-02-13T08:30:35.662Z,19.90
2018-02-13T08:33:04.084Z,18.27
2018-02-13T08:35:32.560Z,29.00
2018-02-13T08:38:00.976Z,19.83
2018-02-13T08:40:29.375Z,22.90
2018-02-13T08:42:57.825Z,18.93
2018-02-13T08:45:26.240Z,20.37
2018-02-13T08:47:54.652Z,19.50
2018-02-13T08:50:23.098Z,24.57
2018-02-13T08:52:51.482Z,18.80
2018-02-13T08:55:19.870Z,19.33
2018-02-13T08:57:48.465Z,21.20
2018-02-13T09:00:16.888Z,20.53
2018-02-13T09:02:45.300Z,21.47
2018-02-13T09:05:13.764Z,18.17
2018-02-13T09:07:42.157Z,18.30
2018-02-13T09:10:10.572Z,18.00
2018-02-13T09:12:39.025Z,18.87
2018-02-13T09:15:07.417Z,20.50
2018-02-13T09:17:35.824Z,20.50
2018-02-13T09:20:04.297Z,16.67
2018-02-13T09:22:32.711Z,16.77
2018-02-13T09:25:01.102Z,19.60
2018-02-13T09:27:29.569Z,14.63
2018-02-13T09:29:57.974Z,19.77
2018-02-13T09:32:26.369Z,16.87
2018-02-13T09:34:54.805Z,16.93
2018-02-13T09:37:23.207Z,16.20
2018-02-13T09:39:51.608Z,18.63
2018-02-13T09:42:20.044Z,16.10
2018-02-13T09:44:48.429Z,12.70
2018-02-13T09:47:16.843Z,13.70
2018-02-13T09:49:45.257Z,14.83
2018-02-13T09:52:13.656Z,14.93
2018-02-13T09:54:42.045Z,14.30
2018-02-13T09:57:10.485Z,18.17
2018-02-13T09:59:39.776Z,14.13
2018-02-13T10:02:08.166Z,14.07
2018-02-13T10:04:36.606Z,15.50
2018-02-13T10:07:05.009Z,13.83
2018-02-13T10:09:33.390Z,15.20
2018-02-13T10:12:01.818Z,12.97
2018-02-13T10:14:30.232Z,13.93
2018-02-13T10:16:58.665Z,15.10
2018-02-13T10:19:27.325Z,13.50
2018-02-13T10:21:55.757Z,17.60
2018-02-13T10:24:24.188Z,14.83
2018-02-13T10:26:52.808Z,13.83
2018-02-13T10:29:21.212Z,13.57
2018-02-13T10:31:50.039Z,17.90
2018-02-13T10:34:18.504Z,12.00
2018-02-13T10:36:46.893Z,14.83
2018-02-13T10:39:15.311Z,16.47
2018-02-13T10:41:43.758Z,22.67
2018-02-13T10:44:12.207Z,17.83
2018-02-13T10:46:40.573Z,11.43
2018-02-13T10:49:09.010Z,14.80
2018-02-13T10:51:37.397Z,10.93
2018-02-13T10:54:05.800Z,17.33
2018-02-13T10:56:34.263Z,16.97
2018-02-13T10:59:02.672Z,11.30
2018-02-13T11:01:36.738Z,17.60
2018-02-13T11:04:05.123Z,14.00
2018-02-13T11:06:33.497Z,13.77
2018-02-13T11:09:01.940Z,12.80
2018-02-13T11:11:30.334Z,12.47
2018-02-13T11:13:58.729Z,12.03
2018-02-13T11:16:27.153Z,11.70
2018-02-13T11:18:55.551Z,16.07
2018-02-13T11:21:23.936Z,18.60
2018-02-13T11:23:52.462Z,11.73
2018-02-13T11:26:20.860Z,12.47
2018-02-13T11:28:49.257Z,12.73
2018-02-13T11:31:17.700Z,14.90
2018-02-13T11:33:46.111Z,13.83
2018-02-13T11:36:14.502Z,14.33
2018-02-13T11:38:42.952Z,14.33
2018-02-13T11:41:11.338Z,13.53
2018-02-13T11:43:39.740Z,11.77
2018-02-13T11:46:08.185Z,10.97
2018-02-13T11:48:36.596Z,13.57
2018-02-13T11:51:05.000Z,12.67
2018-02-13T11:53:33.444Z,10.67
2018-02-13T11:56:01.846Z,14.53
2018-02-13T11:58:30.245Z,11.57
2018-02-13T12:00:58.705Z,9.27
2018-02-13T12:03:27.083Z,11.80
2018-02-13T12:05:55.494Z,10.73
2018-02-13T12:08:23.953Z,9.43
2018-02-13T12:10:52.339Z,15.30
2018-02-13T12:13:20.734Z,11.27
2018-02-13T12:15:49.200Z,12.23
2018-02-13T12:18:17.587Z,10.83
2018-02-13T12:20:45.980Z,11.30
2018-02-13T12:23:14.420Z,9.10
2018-02-13T12:25:42.865Z,12.17
2018-02-13T12:28:11.305Z,10.97
2018-02-13T12:30:39.796Z,14.00
2018-02-13T12:33:08.259Z,11.43
2018-02-13T12:35:36.659Z,10.20
2018-02-13T12:38:05.114Z,11.80
2018-02-13T12:40:33.511Z,14.37
2018-02-13T12:43:01.923Z,9.73
2018-02-13T12:45:30.540Z,10.77
2018-02-13T12:47:58.965Z,9.87
2018-02-13T12:50:27.362Z,10.33
2018-02-13T12:52:55.839Z,13.93
2018-02-13T12:55:24.248Z,10.73
2018-02-13T12:57:52.668Z,12.10
2018-02-13T13:00:21.110Z,10.97
2018-02-13T13:02:49.509Z,7.43
2018-02-13T13:05:17.950Z,11.20
2018-02-13T13:07:46.421Z,11.80
2018-02-13T13:10:14.839Z,13.30
2018-02-13T13:12:43.256Z,14.47
2018-02-13T13:15:11.703Z,7.13
2018-02-13T13:17:40.101Z,13.27
2018-02-13T13:20:08.490Z,11.73
2018-02-13T13:22:36.937Z,9.67
2018-02-13T13:25:05.318Z,9.50
2018-02-13T13:27:33.697Z,11.33
2018-02-13T13:30:02.145Z,12.87
2018-02-13T13:32:30.556Z,7.37
2018-02-13T13:34:58.965Z,8.60
2018-02-13T13:37:27.393Z,10.57
2018-02-13T13:39:55.808Z,11.33
2018-02-13T13:42:24.209Z,7.70
2018-02-13T13:44:52.674Z,9.57
2018-02-13T13:47:21.072Z,6.87
2018-02-13T13:49:49.477Z,10.73
2018-02-13T13:52:17.909Z,8.70
2018-02-13T13:54:46.327Z,10.83
2018-02-13T13:57:14.717Z,9.17
2018-02-13T13:59:43.164Z,11.27
2018-02-13T14:02:11.574Z,11.20
2018-02-13T14:04:39.988Z,10.37
2018-02-13T14:07:08.450Z,8.07
2018-02-13T14:09:36.856Z,8.63
2018-02-13T14:12:05.277Z,6.13
2018-02-13T14:14:33.865Z,7.70
2018-02-13T14:17:03.176Z,11.50
2018-02-13T14:19:31.577Z,8.30
2018-02-13T14:22:00.018Z,7.27
2018-02-13T14:24:28.411Z,9.77
2018-02-13T14:26:56.829Z,8.83
2018-02-13T14:29:25.293Z,9.50
2018-02-13T14:31:53.700Z,10.83
2018-02-13T14:34:22.113Z,8.63
2018-02-13T14:36:50.521Z,8.30
2018-02-13T14:39:18.914Z,8.67
2018-02-13T14:41:47.294Z,8.17
2018-02-13T14:44:15.749Z,14.23
2018-02-13T14:46:44.133Z,7.33
2018-02-13T14:49:12.514Z,6.60
2018-02-13T14:51:40.937Z,10.43
2018-02-13T14:54:09.342Z,7.00
2018-02-13T14:56:37.747Z,8.47
2018-02-13T14:59:06.233Z,9.13
2018-02-13T15:01:34.636Z,9.87
2018-02-13T15:04:03.028Z,9.57
2018-02-13T15:06:31.472Z,7.27
2018-02-13T15:08:59.861Z,9.07
2018-02-13T15:11:28.273Z,9.33
2018-02-13T15:13:56.759Z,9.47
2018-02-13T15:16:25.180Z,10.03
2018-02-13T15:18:53.596Z,5.80
2018-02-13T15:21:22.034Z,11.23
2018-02-13T15:23:50.433Z,12.60
2018-02-13T15:26:18.825Z,9.80
2018-02-13T15:28:47.262Z,7.97
2018-02-13T15:31:15.641Z,9.13
2018-02-13T15:33:44.056Z,8.83
2018-02-13T15:36:12.475Z,8.17
2018-02-13T15:38:40.874Z,12.37
2018-02-13T15:41:09.266Z,10.97
2018-02-13T15:43:37.713Z,9.07
2018-02-13T15:46:06.119Z,6.93
2018-02-13T15:48:34.507Z,8.50
2018-02-13T15:51:02.938Z,12.07
2018-02-13T15:53:31.323Z,7.73
2018-02-13T15:55:59.721Z,6.63
2018-02-13T15:58:28.157Z,12.43
2018-02-13T16:00:56.545Z,17.20
2018-02-13T16:03:24.927Z,18.43
2018-02-13T16:05:53.510Z,10.40
2018-02-13T16:08:21.905Z,10.83
2018-02-13T16:10:50.286Z,12.23
2018-02-13T16:13:18.738Z,11.17
2018-02-13T16:15:47.145Z,10.87
2018-02-13T16:18:15.564Z,10.80
2018-02-13T16:20:44.014Z,13.47
2018-02-13T16:23:12.413Z,14.07
2018-02-13T16:25:40.840Z,15.23
2018-02-13T16:28:09.287Z,17.50
2018-02-13T16:30:37.700Z,14.80
2018-02-13T16:33:06.662Z,15.43
2018-02-13T16:35:35.130Z,17.83
2018-02-13T16:38:03.565Z,18.33
2018-02-13T16:40:32.008Z,16.70
2018-02-13T16:43:00.507Z,20.47
2018-02-13T16:45:28.949Z,17.57
2018-02-13T16:47:57.406Z,16.07
2018-02-13T16:50:25.888Z,15.10
2018-02-13T16:52:54.324Z,15.10
2018-02-13T16:55:22.738Z,12.20
2018-02-13T16:57:51.204Z,13.97
2018-02-13T17:00:19.641Z,14.10
2018-02-13T17:02:48.067Z,15.27
2018-02-13T17:05:16.546Z,12.47
2018-02-13T17:07:44.994Z,14.87
2018-02-13T17:10:13.425Z,29.57
2018-02-13T17:12:42.136Z,32.17
2018-02-13T17:15:10.569Z,16.37
2018-02-13T17:17:39.012Z,16.70
2018-02-13T17:20:07.478Z,18.10
2018-02-13T17:22:35.922Z,13.53
2018-02-13T17:25:04.377Z,12.93
2018-02-13T17:27:32.858Z,15.47
2018-02-13T17:30:01.284Z,18.70
2018-02-13T17:32:29.741Z,21.83
2018-02-13T17:34:58.246Z,18.43
2018-02-13T17:37:26.674Z,13.27
2018-02-13T17:41:11.471Z,38.73
2018-02-13T17:43:39.874Z,20.07
2018-02-13T17:46:08.279Z,33.53
2018-02-13T17:48:36.737Z,26.77
2018-02-13T17:51:05.150Z,20.53
2018-02-13T17:53:33.549Z,25.83
2018-02-13T17:56:01.998Z,31.90
2018-02-13T17:58:30.381Z,31.87
2018-02-13T18:00:58.808Z,50.00
2018-02-13T18:03:27.265Z,29.17
2018-02-13T18:05:55.655Z,18.67
2018-02-13T18:08:24.052Z,25.80
2018-02-13T18:10:52.516Z,17.87
2018-02-13T18:13:20.977Z,20.33
2018-02-13T18:15:49.365Z,12.10
2018-02-13T18:18:18.103Z,13.80
2018-02-13T18:20:46.486Z,11.83
2018-02-13T18:23:14.884Z,12.83
2018-02-13T18:25:43.338Z,20.27
2018-02-13T18:28:11.721Z,16.37
2018-02-13T18:30:40.132Z,12.60
2018-02-13T18:33:08.597Z,10.83
2018-02-13T18:35:37.023Z,16.70
2018-02-13T18:38:05.407Z,14.33
2018-02-13T18:40:33.848Z,12.53
2018-02-13T18:43:02.251Z,10.97
2018-02-13T18:45:30.660Z,12.37
2018-02-13T18:47:59.100Z,12.80
2018-02-13T18:50:27.493Z,10.87
2018-02-13T18:55:24.340Z,10.80
2018-02-13T18:57:52.745Z,10.77
2018-02-13T19:00:21.149Z,17.27
2018-02-13T19:02:49.604Z,28.13
2018-02-13T19:05:18.009Z,14.83
2018-02-13T19:07:46.401Z,17.37
2018-02-13T19:10:14.863Z,23.80
2018-02-13T19:12:43.257Z,32.70
2018-02-13T19:15:11.665Z,16.33
2018-02-13T19:17:40.086Z,14.90
2018-02-13T19:20:08.493Z,12.87
2018-02-13T19:22:36.891Z,15.60
2018-02-13T19:25:05.326Z,13.60
2018-02-13T19:27:33.718Z,10.20
2018-02-13T19:30:02.124Z,11.37
2018-02-13T19:32:30.548Z,11.90
2018-02-13T19:34:58.967Z,8.27
2018-02-13T19:37:27.368Z,21.57
2018-02-13T19:39:55.800Z,18.23
2018-02-13T19:42:24.210Z,14.87
2018-02-13T19:44:52.620Z,11.93
2018-02-13T19:47:21.065Z,15.20
2018-02-13T19:49:49.449Z,10.47
2018-02-13T19:52:17.844Z,11.27
2018-02-13T19:54:46.454Z,10.83
2018-02-13T19:57:14.853Z,7.60
2018-02-13T19:59:43.236Z,7.83
2018-02-13T20:02:11.672Z,10.30
2018-02-13T20:04:40.069Z,8.93
2018-02-13T20:07:08.445Z,7.23
2018-02-13T20:09:36.905Z,7.10
2018-02-13T20:12:05.341Z,7.67
2018-02-13T20:14:33.733Z,8.43
2018-02-13T20:17:02.168Z,5.87
2018-02-13T20:19:30.546Z,7.60
2018-02-13T20:21:58.939Z,9.20
2018-02-13T20:24:27.555Z,12.60
2018-02-13T20:26:55.980Z,15.77
2018-02-13T20:29:24.369Z,15.07
2018-02-13T20:31:53.177Z,21.47
2018-02-13T20:34:21.685Z,12.73
2018-02-13T20:36:50.068Z,7.37
2018-02-13T20:39:18.517Z,5.37
2018-02-13T20:41:46.906Z,6.77
2018-02-13T20:44:15.298Z,7.83
2018-02-13T20:46:43.813Z,6.80
2018-02-13T20:49:12.221Z,8.83
2018-02-13T20:51:40.591Z,7.30
2018-02-13T20:54:09.023Z,7.20
2018-02-13T20:56:37.444Z,8.13
2018-02-13T20:59:05.822Z,10.17
2018-02-13T21:01:34.260Z,6.77
2018-02-13T21:04:02.661Z,7.63
2018-02-13T21:06:31.048Z,6.03
2018-02-13T21:08:59.688Z,7.53
2018-02-13T21:11:28.070Z,9.77
2018-02-13T21:13:56.457Z,6.40
2018-02-13T21:16:24.897Z,5.20
2018-02-13T21:18:53.292Z,6.43
2018-02-13T21:21:21.692Z,9.07
2018-02-13T21:23:50.123Z,8.50
2018-02-13T21:26:18.514Z,11.53
2018-02-13T21:28:46.898Z,10.57
2018-02-13T21:31:15.316Z,8.73
2018-02-13T21:33:43.690Z,8.37
2018-02-13T21:36:12.117Z,8.57
2018-02-13T21:38:40.545Z,6.27
2018-02-13T21:41:08.965Z,7.60
2018-02-13T21:43:37.343Z,8.17
2018-02-13T21:46:05.758Z,7.37
2018-02-13T21:48:34.186Z,7.47
2018-02-13T21:51:02.574Z,6.80
2018-02-13T21:53:30.998Z,7.27
2018-02-13T21:55:59.392Z,8.33
2018-02-13T21:58:27.789Z,7.30
2018-02-13T22:00:56.246Z,7.03
2018-02-13T22:03:24.626Z,6.83
2018-02-13T22:05:53.087Z,10.93
2018-02-13T22:08:21.521Z,7.27
2018-02-13T22:10:49.960Z,9.67
2018-02-13T22:13:18.403Z,12.13
2018-02-13T22:15:46.840Z,53.00
2018-02-13T22:18:15.289Z,30.73
2018-02-13T22:20:43.673Z,29.40
2018-02-13T22:23:12.101Z,37.53
2018-02-13T22:25:40.517Z,38.23
2018-02-13T22:28:08.924Z,36.93
2018-02-13T22:30:37.369Z,47.93
2018-02-13T22:33:05.769Z,114.73
2018-02-13T22:35:34.163Z,96.67
2018-02-13T22:38:02.629Z,125.00
2018-02-13T22:40:31.035Z,83.57
2018-02-13T22:42:59.441Z,111.80
2018-02-13T22:45:27.908Z,137.17
2018-02-13T22:47:56.316Z,83.57
2018-02-13T22:50:24.713Z,180.03
2018-02-13T22:52:53.160Z,86.07
2018-02-13T22:55:21.579Z,104.63
2018-02-13T22:57:49.974Z,100.33
2018-02-13T23:00:21.324Z,123.37
2018-02-13T23:02:49.717Z,42.20
2018-02-13T23:05:18.121Z,48.70
2018-02-13T23:07:46.775Z,26.97
2018-02-13T23:10:15.162Z,18.27
2018-02-13T23:12:43.569Z,21.70
2018-02-13T23:15:12.049Z,16.67
2018-02-13T23:17:40.453Z,16.40
2018-02-13T23:20:08.838Z,11.87
2018-02-13T23:22:37.263Z,15.07
2018-02-13T23:25:05.648Z,12.03
2018-02-13T23:27:34.048Z,11.83
2018-02-13T23:30:02.478Z,11.93
2018-02-13T23:32:30.880Z,14.93
2018-02-13T23:34:59.288Z,14.13
2018-02-13T23:37:27.736Z,9.87
2018-02-13T23:39:56.120Z,11.27
2018-02-13T23:42:24.510Z,9.07
2018-02-13T23:44:52.940Z,8.07
2018-02-13T23:47:21.333Z,8.37
2018-02-13T23:49:49.749Z,11.07
2018-02-13T23:52:18.173Z,6.93
2018-02-13T23:54:46.580Z,10.47
2018-02-13T23:57:14.965Z,7.30
2018-02-13T23:59:43.410Z,9.33
